Historique des stations

Station météo de Boisseaux

Altitude de la station : 132 m







Données météorologiques pour le 21/10/2021
Date
Heure
Températures Humidité Point de rosée Vitesse
du vent
Direction Rafales Windchill Pression Pluviométrie
Cumul
Date
Heure
Températures Humidité Point de rosée Vitesse
du vent
Direction Rafales Windchill Pression Pluviométrie
Cumul
21/10/2021 12:1414.5 °C74 %10.0 °C13 km/hSO42 km/h13.3 1013 hPa1 mm
21/10/2021 11:5914.3 °C75 %10.0 °C5 km/hOSO42 km/h14.4 1013 hPa1 mm
21/10/2021 11:4413.9 °C77 %10.0 °C3 km/hONO42 km/h13.9 1014 hPa1 mm
21/10/2021 11:2913.6 °C78 %10.0 °C11 km/hO42 km/h12.8 1013 hPa1 mm
21/10/2021 11:1413.1 °C78 %9.4 °C3 km/hONO42 km/h13.3 1013 hPa1 mm
21/10/2021 10:5912.7 °C81 %9.4 °C6 km/hSO42 km/h12.8 1014 hPa1 mm
21/10/2021 10:4412.3 °C81 %8.9 °C3 km/hONO42 km/h12.2 1014 hPa1 mm
21/10/2021 10:2911.9 °C83 %8.9 °C3 km/hONO42 km/h11.7 1014 hPa1 mm
21/10/2021 10:1411.6 °C83 %8.9 °C13 km/hO42 km/h10.0 1013 hPa1 mm
21/10/2021 10:0011.1 °C85 %8.9 °C6 km/hOSO42 km/h11.1 1013 hPa1 mm
21/10/2021 09:4510.6 °C86 %8.3 °C3 km/hO42 km/h10.6 1013 hPa1 mm
21/10/2021 09:3010.1 °C87 %8.3 °C5 km/hOSO42 km/h9.4 1013 hPa1 mm
21/10/2021 09:159.6 °C88 %7.8 °C3 km/hO42 km/h8.9 1013 hPa1 mm
21/10/2021 09:009.4 °C88 %7.8 °C-NE42 km/h9.4 1012 hPa1 mm
21/10/2021 08:459.3 °C88 %7.2 °C3 km/hONO42 km/h8.9 1012 hPa1 mm
21/10/2021 08:309.4 °C87 %7.2 °C-O42 km/h9.4 1012 hPa1 mm
21/10/2021 08:159.6 °C87 %7.8 °C5 km/hOSO42 km/h8.9 1012 hPa1 mm
21/10/2021 07:599.7 °C86 %7.2 °C5 km/hSO42 km/h8.9 1011 hPa1 mm
21/10/2021 07:449.8 °C86 %7.8 °C3 km/hO42 km/h9.4 1011 hPa1 mm
21/10/2021 07:299.9 °C86 %7.8 °C2 km/hO42 km/h10.0 1011 hPa1 mm
21/10/2021 07:1410.0 °C86 %7.8 °C6 km/hO42 km/h8.9 1011 hPa1 mm
21/10/2021 06:5910.1 °C85 %7.8 °C6 km/hSSO42 km/h8.9 1011 hPa1 mm
21/10/2021 06:4410.6 °C83 %7.8 °C5 km/hO42 km/h10.6 1010 hPa1 mm
21/10/2021 06:2910.6 °C84 %7.8 °C3 km/hO42 km/h10.6 1010 hPa1 mm
21/10/2021 06:1410.8 °C83 %7.8 °C8 km/hOSO42 km/h9.4 1010 hPa1 mm
21/10/2021 05:5910.7 °C85 %8.3 °C3 km/hNE42 km/h10.6 1009 hPa1 mm
21/10/2021 05:4410.7 °C85 %8.3 °C8 km/hO42 km/h9.4 1009 hPa1 mm
21/10/2021 05:2910.9 °C84 %8.3 °C10 km/hS42 km/h10.0 1008 hPa1 mm
21/10/2021 05:1410.9 °C84 %8.3 °C6 km/hONO42 km/h11.1 1007 hPa1 mm
21/10/2021 04:5911.0 °C84 %8.3 °C16 km/hOSO42 km/h8.3 1007 hPa1 mm
21/10/2021 04:4410.9 °C86 %8.9 °C11 km/hS42 km/h9.4 1007 hPa1 mm
21/10/2021 04:2910.8 °C86 %8.3 °C10 km/hOSO42 km/h9.4 1006 hPa1 mm
21/10/2021 04:1411.2 °C86 %8.9 °C11 km/hONO42 km/h9.4 1006 hPa0.8 mm
21/10/2021 04:0011.9 °C81 %8.9 °C11 km/hO42 km/h10.0 1005 hPa0.2 mm
21/10/2021 03:4512.7 °C75 %8.3 °C11 km/hONO42 km/h11.7 1004 hPa-
21/10/2021 03:3012.7 °C75 %8.3 °C16 km/hONO42 km/h10.6 1003 hPa-
21/10/2021 03:1512.8 °C75 %8.3 °C11 km/hSO42 km/h11.7 1003 hPa-
21/10/2021 03:0012.7 °C78 %8.9 °C14 km/hOSO42 km/h11.1 1002 hPa-
21/10/2021 02:4512.7 °C80 %9.4 °C8 km/hONO42 km/h12.2 1002 hPa-
21/10/2021 02:2912.9 °C78 %9.4 °C10 km/hSSO42 km/h11.7 1001 hPa-
21/10/2021 02:1412.7 °C79 %9.4 °C10 km/hO29 km/h11.7 1001 hPa-
21/10/2021 01:5912.5 °C79 %8.9 °C13 km/hS29 km/h11.1 1001 hPa-
21/10/2021 01:4412.7 °C79 %8.9 °C5 km/hONO29 km/h12.8 1001 hPa-
21/10/2021 01:2912.7 °C80 %9.4 °C6 km/hSSO29 km/h12.8 1001 hPa-
21/10/2021 01:1412.9 °C80 %9.4 °C3 km/hNNE27 km/h12.8 1001 hPa-
21/10/2021 00:5913.1 °C81 %10.0 °C3 km/hNO27 km/h13.3 1001 hPa-
21/10/2021 00:4413.0 °C83 %10.0 °C8 km/hSO23 km/h12.2 1001 hPa-
21/10/2021 00:2913.0 °C83 %10.0 °C16 km/hOSO23 km/h10.6 1001 hPa-
21/10/2021 00:1413.0 °C84 %10.6 °C3 km/hONO23 km/h12.8 1001 hPa-


Minima :

Température : 9.3 °C
Humidité : 74 %
Point de rosée : 7.2 °C
Vent moyen : 2 km/h
Windchill : 8.3
Pression atm. : 1001 hPa
Maxima :

Température : 14.5 °C
Humidité : 88 %
Point de rosée : 10.6 °C
Vent moyen : 16 km/h
Windchill : 14.4
Pression atm. : 1014 hPa
Rafales max : 42 km/h
Cumul de pluie sur 24H : 1 mm

Boisseaux est une commune du département Loiret (45).
La station météorologique du réseau de l'association la plus proche de Boisseaux est celle de Bellegarde



Icône Facebook Association Météo Centre Icône Twitter Association Météo Centre Icône Chaîne Youtube Association Météo Centre Icône contact Association Météo Centre Icône Insta Association Météo Centre